Driffield, United Kingdom
Current Conditions -  °F | °C
As of 6:50 PM on Thursday 30 Oct 2014 (Local Time) from EGXV Reporting Station
Haze Haze  
Wind Chill: 59°   Ceiling: 5000
Heat Index: 59°   Visibility: 6mi
Dew Point: 59°   Wind: 6mph
Humidity: 100%   Direction: 170°S
Pressure: 29.97"   Gusts: NA
Location:  54°N, 0.44°W
Report Text: EGXV 301850Z AUTO 17005KT 9000 BR BKN050/// 15/15 Q1015
Loading
Personal Weather Stations






























Interactive Weather Map
Tropical Storm Tracking
New forecast layout! Learn more

10-Day Weather Forecast

Advertisements
Track Severe Weather on mobile